createdAt,value
2023-11-30T00:00:26.118Z,-0.41
2023-11-30T00:02:52.700Z,-0.43
2023-11-30T00:05:22.792Z,-0.43
2023-11-30T00:07:50.354Z,-0.39
2023-11-30T00:10:17.006Z,-0.42
2023-11-30T00:12:43.665Z,-0.37
2023-11-30T00:15:10.534Z,-0.36
2023-11-30T00:17:37.209Z,-0.36
2023-11-30T00:20:04.353Z,-0.37
2023-11-30T00:22:30.878Z,-0.36
2023-11-30T00:24:57.609Z,-0.34
2023-11-30T00:27:24.204Z,-0.33
2023-11-30T00:29:50.811Z,-0.37
2023-11-30T00:32:17.497Z,-0.34
2023-11-30T00:34:44.240Z,-0.37
2023-11-30T00:37:10.828Z,-0.38
2023-11-30T00:39:37.442Z,-0.42
2023-11-30T00:42:04.332Z,-0.39
2023-11-30T00:44:30.958Z,-0.46
2023-11-30T00:46:57.431Z,-0.46
2023-11-30T00:49:23.936Z,-0.46
2023-11-30T00:51:50.481Z,-0.51
2023-11-30T00:54:17.084Z,-0.56
2023-11-30T00:56:43.995Z,-0.56
2023-11-30T00:59:10.487Z,-0.54
2023-11-30T01:01:37.170Z,-0.55
2023-11-30T01:04:03.904Z,-0.57
2023-11-30T01:06:31.480Z,-0.62
2023-11-30T01:08:58.205Z,-0.61
2023-11-30T01:11:24.690Z,-0.60
2023-11-30T01:13:51.202Z,-0.61
2023-11-30T01:16:17.787Z,-0.54
2023-11-30T01:18:44.510Z,-0.45
2023-11-30T01:21:11.158Z,-0.39
2023-11-30T01:23:37.739Z,-0.42
2023-11-30T01:26:04.764Z,-0.44
2023-11-30T01:28:31.239Z,-0.46
2023-11-30T01:30:57.842Z,-0.46
2023-11-30T01:33:24.479Z,-0.53
2023-11-30T01:35:51.181Z,-0.57
2023-11-30T01:38:17.865Z,-0.58
2023-11-30T01:40:44.562Z,-0.56
2023-11-30T01:43:12.002Z,-0.53
2023-11-30T01:45:38.959Z,-0.51
2023-11-30T01:48:05.935Z,-0.52
2023-11-30T01:50:32.823Z,-0.51
2023-11-30T01:52:59.700Z,-0.53
2023-11-30T01:55:26.347Z,-0.50
2023-11-30T01:57:52.975Z,-0.54
2023-11-30T02:00:21.674Z,-0.52
2023-11-30T02:02:48.762Z,-0.50
2023-11-30T02:05:15.309Z,-0.51
2023-11-30T02:07:41.988Z,-0.51
2023-11-30T02:10:08.868Z,-0.52
2023-11-30T02:12:35.538Z,-0.52
2023-11-30T02:15:02.321Z,-0.54
2023-11-30T02:17:29.002Z,-0.51
2023-11-30T02:19:55.554Z,-0.51
2023-11-30T02:22:22.105Z,-0.47
2023-11-30T02:24:48.593Z,-0.44
2023-11-30T02:27:18.164Z,-0.43
2023-11-30T02:29:44.638Z,-0.41
2023-11-30T02:32:11.741Z,-0.43
2023-11-30T02:34:38.268Z,-0.41
2023-11-30T02:37:04.989Z,-0.46
2023-11-30T02:39:33.207Z,-0.45
2023-11-30T02:41:59.894Z,-0.45
2023-11-30T02:44:26.498Z,-0.41
2023-11-30T02:46:53.052Z,-0.42
2023-11-30T02:49:19.740Z,-0.42
2023-11-30T02:51:46.271Z,-0.42
2023-11-30T02:54:12.927Z,-0.37
2023-11-30T02:56:42.517Z,-0.41
2023-11-30T02:59:09.027Z,-0.37
2023-11-30T03:01:46.668Z,-0.39
2023-11-30T03:04:13.531Z,-0.37
2023-11-30T03:06:43.683Z,-0.40
2023-11-30T03:09:10.354Z,-0.42
2023-11-30T03:11:36.981Z,-0.43
2023-11-30T03:14:03.572Z,-0.44
2023-11-30T03:16:30.168Z,-0.42
2023-11-30T03:19:10.532Z,-0.48
2023-11-30T03:21:43.350Z,-0.49
2023-11-30T03:24:10.117Z,-0.51
2023-11-30T03:26:36.700Z,-0.45
2023-11-30T03:29:03.290Z,-0.47
2023-11-30T03:31:29.904Z,-0.46
2023-11-30T03:33:56.442Z,-0.47
2023-11-30T03:36:23.048Z,-0.46
2023-11-30T03:38:55.013Z,-0.40
2023-11-30T03:41:25.269Z,-0.37
2023-11-30T03:43:52.798Z,-0.39
2023-11-30T03:46:22.634Z,-0.41
2023-11-30T03:48:49.429Z,-0.39
2023-11-30T03:51:16.061Z,-0.40
2023-11-30T03:53:42.698Z,-0.38
2023-11-30T03:56:09.542Z,-0.37
2023-11-30T03:58:36.228Z,-0.34
2023-11-30T04:01:02.734Z,-0.32
2023-11-30T04:03:29.303Z,-0.33
2023-11-30T04:05:55.939Z,-0.32
2023-11-30T04:08:22.501Z,-0.31
2023-11-30T04:10:49.558Z,-0.29
2023-11-30T04:13:16.380Z,-0.30
2023-11-30T04:15:43.818Z,-0.29
2023-11-30T04:18:10.595Z,-0.38
2023-11-30T04:20:37.231Z,-0.37
2023-11-30T04:23:04.588Z,-0.36
2023-11-30T04:25:31.154Z,-0.34
2023-11-30T04:27:57.714Z,-0.39
2023-11-30T04:30:24.316Z,-0.42
2023-11-30T04:32:50.963Z,-0.39
2023-11-30T04:35:17.537Z,-0.36
2023-11-30T04:37:44.085Z,-0.38
2023-11-30T04:40:13.315Z,-0.31
2023-11-30T04:42:40.027Z,-0.29
2023-11-30T04:45:07.068Z,-0.27
2023-11-30T04:47:33.610Z,-0.28
2023-11-30T04:50:00.293Z,-0.26
2023-11-30T04:52:26.816Z,-0.23
2023-11-30T04:54:53.377Z,-0.25
2023-11-30T04:57:19.964Z,-0.25
2023-11-30T04:59:46.558Z,-0.23
2023-11-30T05:02:13.184Z,-0.30
2023-11-30T05:04:39.929Z,-0.23
2023-11-30T05:07:06.577Z,-0.23
2023-11-30T05:09:33.285Z,-0.24
2023-11-30T05:12:00.316Z,-0.17
2023-11-30T05:14:26.919Z,-0.15
2023-11-30T05:16:53.455Z,-0.15
2023-11-30T05:19:19.996Z,-0.15
2023-11-30T05:21:46.532Z,-0.18
2023-11-30T05:24:13.303Z,-0.14
2023-11-30T05:26:39.832Z,-0.14
2023-11-30T05:29:06.316Z,-0.09
2023-11-30T05:31:32.879Z,-0.06
2023-11-30T05:33:59.419Z,-0.08
2023-11-30T05:36:25.986Z,-0.04
2023-11-30T05:38:52.869Z,-0.09
2023-11-30T05:41:19.785Z,-0.04
2023-11-30T05:43:46.491Z,-0.08
2023-11-30T05:46:13.223Z,-0.07
2023-11-30T05:48:39.806Z,-0.04
2023-11-30T05:51:06.857Z,-0.03
2023-11-30T05:53:33.433Z,0.01
2023-11-30T05:56:00.195Z,-0.03
2023-11-30T05:58:26.729Z,-0.02
2023-11-30T06:00:53.448Z,-0.05
2023-11-30T06:03:20.084Z,-0.04
2023-11-30T06:05:46.768Z,-0.04
2023-11-30T06:08:13.445Z,-0.05
2023-11-30T06:10:39.999Z,-0.04
2023-11-30T06:13:08.982Z,-0.01
2023-11-30T06:15:35.777Z,-0.06
2023-11-30T06:18:02.483Z,-0.01
2023-11-30T06:20:29.211Z,-0.01
2023-11-30T06:22:55.697Z,-0.04
2023-11-30T06:25:22.467Z,-0.03
2023-11-30T06:27:49.216Z,0.03
2023-11-30T06:30:16.027Z,0.02
2023-11-30T06:32:42.741Z,-0.01
2023-11-30T06:35:09.650Z,0.03
2023-11-30T06:37:36.243Z,-0.01
2023-11-30T06:40:02.858Z,0.01
2023-11-30T06:42:30.117Z,0.05
2023-11-30T06:44:56.714Z,0.07
2023-11-30T06:47:23.253Z,0.07
2023-11-30T06:49:49.885Z,0.07
2023-11-30T06:52:17.287Z,0.10
2023-11-30T06:54:43.878Z,0.07
2023-11-30T06:57:11.259Z,0.08
2023-11-30T06:59:38.025Z,0.11
2023-11-30T07:02:04.789Z,0.10
2023-11-30T07:04:31.403Z,0.08
2023-11-30T07:06:57.965Z,0.09
2023-11-30T07:09:24.558Z,0.07
2023-11-30T07:11:51.121Z,0.05
2023-11-30T07:14:17.687Z,0.08
2023-11-30T07:16:44.236Z,0.04
2023-11-30T07:19:11.032Z,0.08
2023-11-30T07:21:38.413Z,0.03
2023-11-30T07:24:05.690Z,0.05
2023-11-30T07:26:32.222Z,0.07
2023-11-30T07:28:58.756Z,0.08
2023-11-30T07:31:25.907Z,0.09
2023-11-30T07:33:52.563Z,0.08
2023-11-30T07:36:19.264Z,0.03
2023-11-30T07:38:45.816Z,0.02
2023-11-30T07:41:12.953Z,-0.04
2023-11-30T07:43:39.634Z,-0.02
2023-11-30T07:46:06.829Z,-0.06
2023-11-30T07:48:33.906Z,-0.12
2023-11-30T07:51:00.652Z,-0.17
2023-11-30T07:53:27.480Z,-0.22
2023-11-30T07:55:57.811Z,-0.22
2023-11-30T07:58:24.936Z,-0.25
2023-11-30T08:00:52.502Z,-0.29
2023-11-30T08:03:19.431Z,-0.31
2023-11-30T08:05:46.336Z,-0.33
2023-11-30T08:08:13.565Z,-0.32
2023-11-30T08:10:40.686Z,-0.32
2023-11-30T08:13:07.443Z,-0.33
2023-11-30T08:15:34.389Z,-0.36
2023-11-30T08:18:01.230Z,-0.38
2023-11-30T08:20:28.044Z,-0.38
2023-11-30T08:22:55.613Z,-0.33
2023-11-30T08:25:22.164Z,-0.27
2023-11-30T08:27:51.975Z,-0.26
2023-11-30T08:30:20.738Z,-0.24
2023-11-30T08:32:47.386Z,-0.24
2023-11-30T08:35:13.995Z,-0.23
2023-11-30T08:37:40.564Z,-0.27
2023-11-30T08:40:08.772Z,-0.26
2023-11-30T08:42:36.805Z,-0.28
2023-11-30T08:45:04.573Z,-0.31
2023-11-30T08:47:31.403Z,-0.33
2023-11-30T08:49:57.906Z,-0.35
2023-11-30T08:52:24.485Z,-0.37
2023-11-30T08:54:52.666Z,-0.42
2023-11-30T08:57:20.647Z,-0.41
2023-11-30T08:59:47.574Z,-0.37
2023-11-30T09:02:14.699Z,-0.31
2023-11-30T09:04:45.515Z,-0.25
2023-11-30T09:07:12.093Z,-0.22
2023-11-30T09:09:39.548Z,-0.22
2023-11-30T09:12:07.804Z,-0.19
2023-11-30T09:14:34.345Z,-0.17
2023-11-30T09:17:01.088Z,-0.15
2023-11-30T09:19:27.765Z,-0.14
2023-11-30T09:21:54.460Z,-0.11
2023-11-30T09:24:23.214Z,-0.05
2023-11-30T09:26:54.433Z,-0.02
2023-11-30T09:29:21.087Z,0.03
2023-11-30T09:31:48.021Z,0.05
2023-11-30T09:34:14.660Z,0.07
2023-11-30T09:36:42.004Z,0.02
2023-11-30T09:39:15.888Z,0.08
2023-11-30T09:41:42.573Z,0.11
2023-11-30T09:44:10.183Z,0.15
2023-11-30T09:46:36.988Z,0.19
2023-11-30T09:49:04.582Z,0.26
2023-11-30T09:51:34.030Z,0.31
2023-11-30T09:54:00.782Z,0.31
2023-11-30T09:56:28.211Z,0.30
2023-11-30T09:58:55.926Z,0.32
2023-11-30T10:01:26.089Z,0.37
2023-11-30T10:03:52.885Z,0.41
2023-11-30T10:06:19.679Z,0.47
2023-11-30T10:08:46.261Z,0.53
2023-11-30T10:11:14.979Z,0.64
2023-11-30T10:13:41.555Z,0.75
2023-11-30T10:16:08.909Z,0.93
2023-11-30T10:18:36.161Z,1.13
2023-11-30T10:21:03.751Z,1.17
2023-11-30T10:23:34.223Z,1.19
2023-11-30T10:26:02.837Z,1.14
2023-11-30T10:28:30.126Z,1.08
2023-11-30T10:31:00.685Z,1.06
2023-11-30T10:33:28.116Z,1.02
2023-11-30T10:35:55.084Z,1.05
2023-11-30T10:38:29.511Z,1.15
2023-11-30T10:41:00.679Z,1.15
2023-11-30T10:43:27.854Z,1.20
2023-11-30T10:45:57.273Z,1.28
2023-11-30T10:48:25.579Z,1.44
2023-11-30T10:50:54.468Z,1.40
2023-11-30T10:53:49.695Z,1.32
2023-11-30T10:56:18.715Z,1.28
2023-11-30T10:58:45.507Z,1.37
2023-11-30T11:01:14.930Z,1.43
2023-11-30T11:03:49.134Z,1.46
2023-11-30T11:06:18.799Z,1.28
2023-11-30T11:09:02.633Z,1.21
2023-11-30T11:11:30.826Z,1.14
2023-11-30T11:13:57.894Z,1.35
2023-11-30T11:16:45.566Z,1.42
2023-11-30T11:19:12.228Z,1.51
2023-11-30T11:21:40.623Z,1.38
2023-11-30T11:24:08.701Z,1.39
2023-11-30T11:26:42.322Z,1.51
2023-11-30T11:29:10.106Z,1.59
2023-11-30T11:31:36.679Z,1.74
2023-11-30T11:34:03.411Z,1.85
2023-11-30T11:36:30.007Z,1.88
2023-11-30T11:38:56.573Z,1.71
2023-11-30T11:41:23.439Z,1.50
2023-11-30T11:43:50.063Z,1.53
2023-11-30T11:46:16.621Z,1.50
2023-11-30T11:48:43.246Z,1.41
2023-11-30T11:51:10.870Z,1.42
2023-11-30T11:53:41.897Z,1.41
2023-11-30T11:56:09.279Z,1.35
2023-11-30T11:58:36.333Z,1.30
2023-11-30T12:01:02.980Z,1.34
2023-11-30T12:03:30.139Z,1.11
2023-11-30T12:05:57.155Z,1.08
2023-11-30T12:08:36.407Z,1.14
2023-11-30T12:11:03.186Z,1.06
2023-11-30T12:13:30.649Z,0.99
2023-11-30T12:15:57.425Z,1.07
2023-11-30T12:18:24.142Z,1.13
2023-11-30T12:20:50.866Z,1.14
2023-11-30T12:23:17.438Z,1.05
2023-11-30T12:25:44.513Z,1.04
2023-11-30T12:28:12.723Z,1.00
2023-11-30T12:30:39.407Z,1.00
2023-11-30T12:33:06.060Z,1.04
2023-11-30T12:35:32.662Z,0.96
2023-11-30T12:37:59.620Z,1.13
2023-11-30T12:40:26.475Z,1.07
2023-11-30T12:42:54.165Z,1.15
2023-11-30T12:45:20.735Z,1.27
2023-11-30T12:47:47.588Z,1.25
2023-11-30T12:50:15.233Z,1.28
2023-11-30T12:52:42.231Z,1.31
2023-11-30T12:55:09.599Z,1.31
2023-11-30T12:57:39.748Z,1.30
2023-11-30T13:00:11.123Z,1.19
2023-11-30T13:02:37.903Z,1.23
2023-11-30T13:05:05.006Z,1.25
2023-11-30T13:07:31.557Z,1.02
2023-11-30T13:09:58.149Z,1.09
2023-11-30T13:12:24.841Z,1.07
2023-11-30T13:14:51.555Z,0.99
2023-11-30T13:17:18.142Z,1.02
2023-11-30T13:19:47.815Z,1.08
2023-11-30T13:22:14.447Z,1.14
2023-11-30T13:24:43.600Z,1.07
2023-11-30T13:27:12.188Z,1.13
2023-11-30T13:29:38.704Z,1.08
2023-11-30T13:32:05.886Z,1.11
2023-11-30T13:34:32.788Z,1.10
2023-11-30T13:37:00.535Z,1.08
2023-11-30T13:39:27.583Z,1.15
2023-11-30T13:41:54.381Z,1.08
2023-11-30T13:44:20.985Z,0.95
2023-11-30T13:46:47.649Z,0.95
2023-11-30T13:49:15.206Z,0.92
2023-11-30T13:51:42.055Z,1.01
2023-11-30T13:54:08.717Z,0.90
2023-11-30T13:56:36.937Z,0.91
2023-11-30T13:59:03.792Z,0.91
2023-11-30T14:01:30.422Z,0.83
2023-11-30T14:03:57.119Z,0.81
2023-11-30T14:06:24.359Z,0.79
2023-11-30T14:08:51.021Z,0.76
2023-11-30T14:11:17.663Z,0.78
2023-11-30T14:13:44.733Z,0.80
2023-11-30T14:16:11.711Z,0.80
2023-11-30T14:18:38.348Z,0.81
2023-11-30T14:21:05.125Z,0.76
2023-11-30T14:23:31.721Z,0.62
2023-11-30T14:25:58.647Z,0.69
2023-11-30T14:28:27.329Z,0.77
2023-11-30T14:30:53.984Z,0.79
2023-11-30T14:33:20.828Z,0.81
2023-11-30T14:35:47.480Z,0.73
2023-11-30T14:38:14.038Z,0.65
2023-11-30T14:40:40.609Z,0.66
2023-11-30T14:43:07.357Z,0.62
2023-11-30T14:45:33.997Z,0.57
2023-11-30T14:48:01.678Z,0.56
2023-11-30T14:50:28.363Z,0.53
2023-11-30T14:52:54.992Z,0.48
2023-11-30T14:55:21.864Z,0.46
2023-11-30T14:57:48.489Z,0.39
2023-11-30T15:00:18.293Z,0.45
2023-11-30T15:02:45.108Z,0.35
2023-11-30T15:05:15.252Z,0.35
2023-11-30T15:07:42.376Z,0.45
2023-11-30T15:10:11.990Z,0.34
2023-11-30T15:12:39.326Z,0.37
2023-11-30T15:15:13.905Z,0.36
2023-11-30T15:17:42.802Z,0.39
2023-11-30T15:20:11.631Z,0.35
2023-11-30T15:22:38.989Z,0.24
2023-11-30T15:25:08.050Z,0.26
2023-11-30T15:27:38.782Z,0.17
2023-11-30T15:30:08.320Z,0.15
2023-11-30T15:32:35.015Z,0.20
2023-11-30T15:35:01.608Z,0.13
2023-11-30T15:37:29.209Z,0.17
2023-11-30T15:39:55.987Z,0.22
2023-11-30T15:42:26.474Z,0.18
2023-11-30T15:44:53.089Z,0.14
2023-11-30T15:47:19.685Z,0.17
2023-11-30T15:49:46.521Z,0.15
2023-11-30T15:52:13.349Z,0.21
2023-11-30T15:54:40.861Z,0.18
2023-11-30T15:57:07.604Z,0.17
2023-11-30T15:59:34.425Z,0.22
2023-11-30T16:02:01.700Z,0.22
2023-11-30T16:04:28.451Z,0.05
2023-11-30T16:06:55.167Z,0.14
2023-11-30T16:09:21.746Z,0.08
2023-11-30T16:11:51.513Z,0.13
2023-11-30T16:14:18.130Z,0.11
2023-11-30T16:16:51.836Z,0.10
2023-11-30T16:19:18.940Z,0.13
2023-11-30T16:21:46.048Z,0.15
2023-11-30T16:24:12.796Z,0.16
2023-11-30T16:26:39.507Z,0.07
2023-11-30T16:29:06.458Z,0.08
2023-11-30T16:31:33.080Z,0.14
2023-11-30T16:33:59.686Z,0.14
2023-11-30T16:36:26.361Z,0.15
2023-11-30T16:38:53.105Z,0.19
2023-11-30T16:41:19.744Z,0.13
2023-11-30T16:43:46.401Z,0.11
2023-11-30T16:46:13.703Z,0.13
2023-11-30T16:48:44.560Z,0.05
2023-11-30T16:51:11.435Z,0.08
2023-11-30T16:53:38.014Z,0.11
2023-11-30T16:56:05.231Z,0.06
2023-11-30T16:58:32.633Z,0.07
2023-11-30T17:00:59.447Z,0.04
2023-11-30T17:03:28.937Z,0.01
2023-11-30T17:05:55.616Z,-0.07
2023-11-30T17:08:22.188Z,-0.15
2023-11-30T17:10:48.987Z,-0.17
2023-11-30T17:13:16.225Z,-0.19
2023-11-30T17:15:42.776Z,-0.19
2023-11-30T17:18:09.442Z,-0.23
2023-11-30T17:20:36.001Z,-0.21
2023-11-30T17:23:04.023Z,-0.25
2023-11-30T17:25:30.733Z,-0.27
2023-11-30T17:27:59.671Z,-0.26
2023-11-30T17:30:26.515Z,-0.27
2023-11-30T17:32:53.274Z,-0.26
2023-11-30T17:35:20.065Z,-0.23
2023-11-30T17:37:46.840Z,-0.21
2023-11-30T17:40:13.986Z,-0.19
2023-11-30T17:42:40.653Z,-0.27
2023-11-30T17:45:09.138Z,-0.28
2023-11-30T17:47:35.836Z,-0.24
2023-11-30T17:50:04.434Z,-0.19
2023-11-30T17:52:31.261Z,-0.23
2023-11-30T17:54:57.998Z,-0.35
2023-11-30T17:57:24.853Z,-0.33
2023-11-30T17:59:51.604Z,-0.31
2023-11-30T18:02:18.176Z,-0.41
2023-11-30T18:04:44.830Z,-0.35
2023-11-30T18:07:11.683Z,-0.37
2023-11-30T18:09:38.641Z,-0.36
2023-11-30T18:12:06.138Z,-0.35
2023-11-30T18:14:33.436Z,-0.34
2023-11-30T18:17:01.343Z,-0.40
2023-11-30T18:19:28.337Z,-0.34
2023-11-30T18:21:55.078Z,-0.43
2023-11-30T18:24:30.956Z,-0.43
2023-11-30T18:26:58.984Z,-0.49
2023-11-30T18:29:25.549Z,-0.52
2023-11-30T18:31:52.670Z,-0.57
2023-11-30T18:34:20.607Z,-0.54
2023-11-30T18:36:47.445Z,-0.53
2023-11-30T18:39:15.850Z,-0.55
2023-11-30T18:41:45.871Z,-0.56
2023-11-30T18:44:13.239Z,-0.53
2023-11-30T18:46:40.489Z,-0.60
2023-11-30T18:49:08.023Z,-0.63
2023-11-30T18:51:36.825Z,-0.69
2023-11-30T18:54:03.758Z,-0.65
2023-11-30T18:56:30.653Z,-0.63
2023-11-30T18:58:58.657Z,-0.58
2023-11-30T19:01:26.122Z,-0.60
2023-11-30T19:03:52.879Z,-0.58
2023-11-30T19:06:20.996Z,-0.65
2023-11-30T19:08:48.765Z,-0.60
2023-11-30T19:11:17.107Z,-0.55
2023-11-30T19:13:44.285Z,-0.50
2023-11-30T19:16:23.321Z,-0.49
2023-11-30T19:18:51.293Z,-0.50
2023-11-30T19:21:18.507Z,-0.52
2023-11-30T19:23:46.492Z,-0.53
2023-11-30T19:26:13.940Z,-0.47
2023-11-30T19:28:40.639Z,-0.51
2023-11-30T19:31:07.574Z,-0.52
2023-11-30T19:33:34.446Z,-0.50
2023-11-30T19:36:01.616Z,-0.49
2023-11-30T19:38:28.916Z,-0.50
2023-11-30T19:40:57.150Z,-0.46
2023-11-30T19:43:25.196Z,-0.52
2023-11-30T19:45:54.781Z,-0.63
2023-11-30T19:48:21.779Z,-0.63
2023-11-30T19:50:48.386Z,-0.65
2023-11-30T19:53:14.986Z,-0.64
2023-11-30T19:55:42.178Z,-0.70
2023-11-30T19:58:09.048Z,-0.72
2023-11-30T20:00:35.582Z,-0.69
2023-11-30T20:03:02.173Z,-0.83
2023-11-30T20:05:29.092Z,-0.89
2023-11-30T20:07:55.762Z,-0.83
2023-11-30T20:10:22.468Z,-0.84
2023-11-30T20:12:51.839Z,-0.93
2023-11-30T20:15:21.318Z,-0.98
2023-11-30T20:17:49.329Z,-0.94
2023-11-30T20:20:25.172Z,-0.91
2023-11-30T20:22:51.758Z,-0.90
2023-11-30T20:25:18.653Z,-0.86
2023-11-30T20:27:45.314Z,-0.88
2023-11-30T20:30:12.825Z,-0.89
2023-11-30T20:32:39.508Z,-0.91
2023-11-30T20:35:06.456Z,-0.90
2023-11-30T20:37:32.978Z,-0.93
2023-11-30T20:39:59.897Z,-1.02
2023-11-30T20:42:26.490Z,-1.10
2023-11-30T20:44:53.854Z,-1.06
2023-11-30T20:47:27.183Z,-1.05
2023-11-30T20:49:53.838Z,-1.02
2023-11-30T20:52:20.624Z,-1.03
2023-11-30T20:54:47.402Z,-1.01
2023-11-30T20:57:16.405Z,-1.05
2023-11-30T20:59:43.134Z,-0.98
2023-11-30T21:02:10.076Z,-1.08
2023-11-30T21:04:37.256Z,-1.02
2023-11-30T21:07:03.992Z,-1.02
2023-11-30T21:09:30.815Z,-1.00
2023-11-30T21:11:58.004Z,-1.01
2023-11-30T21:14:24.826Z,-0.99
2023-11-30T21:16:51.714Z,-1.04
2023-11-30T21:19:20.422Z,-0.93
2023-11-30T21:21:48.204Z,-0.94
2023-11-30T21:24:15.238Z,-0.91
2023-11-30T21:26:41.836Z,-0.91
2023-11-30T21:29:09.176Z,-0.88
2023-11-30T21:31:38.583Z,-0.92
2023-11-30T21:34:05.343Z,-0.87
2023-11-30T21:36:32.004Z,-0.90
2023-11-30T21:38:58.562Z,-0.89
2023-11-30T21:41:25.104Z,-0.87
2023-11-30T21:43:51.625Z,-0.86
2023-11-30T21:46:18.199Z,-0.93
2023-11-30T21:48:45.296Z,-0.91
2023-11-30T21:51:12.155Z,-0.93
2023-11-30T21:53:38.696Z,-0.96
2023-11-30T21:56:05.790Z,-0.98
2023-11-30T21:58:33.537Z,-0.99
2023-11-30T22:01:00.289Z,-1.06
2023-11-30T22:03:27.115Z,-0.94
2023-11-30T22:05:54.186Z,-0.99
2023-11-30T22:08:20.730Z,-1.01
2023-11-30T22:10:47.264Z,-1.05
2023-11-30T22:13:13.870Z,-1.02
2023-11-30T22:15:40.639Z,-1.11
2023-11-30T22:18:07.333Z,-1.12
2023-11-30T22:20:33.956Z,-1.08
2023-11-30T22:23:00.568Z,-1.07
2023-11-30T22:25:27.206Z,-1.00
2023-11-30T22:27:53.811Z,-1.02
2023-11-30T22:30:20.428Z,-1.09
2023-11-30T22:32:47.381Z,-1.06
2023-11-30T22:35:13.960Z,-1.01
2023-11-30T22:37:40.715Z,-1.15
2023-11-30T22:40:08.026Z,-1.23
2023-11-30T22:42:34.641Z,-1.26
2023-11-30T22:45:02.176Z,-1.20
2023-11-30T22:47:29.022Z,-1.13
2023-11-30T22:49:55.978Z,-1.13
2023-11-30T22:52:26.285Z,-1.23
2023-11-30T22:54:53.614Z,-1.10
2023-11-30T22:57:20.521Z,-1.10
2023-11-30T22:59:47.068Z,-1.08
2023-11-30T23:02:13.888Z,-1.08
2023-11-30T23:04:40.902Z,-1.04
2023-11-30T23:07:07.885Z,-1.07
2023-11-30T23:09:34.913Z,-1.01
2023-11-30T23:12:01.495Z,-0.99
2023-11-30T23:14:28.008Z,-1.02
2023-11-30T23:16:54.632Z,-0.98
2023-11-30T23:19:21.424Z,-1.07
2023-11-30T23:21:48.290Z,-1.07
2023-11-30T23:24:20.252Z,-1.09
2023-11-30T23:26:49.781Z,-1.07
2023-11-30T23:29:16.295Z,-1.07
2023-11-30T23:31:42.966Z,-1.03
2023-11-30T23:34:09.592Z,-1.02
2023-11-30T23:36:36.279Z,-1.00
2023-11-30T23:39:05.437Z,-1.07
2023-11-30T23:41:32.644Z,-1.07
2023-11-30T23:44:00.464Z,-1.00
2023-11-30T23:46:29.042Z,-0.95
2023-11-30T23:48:55.781Z,-1.02
2023-11-30T23:51:22.343Z,-1.03
2023-11-30T23:53:48.951Z,-1.01
2023-11-30T23:56:15.577Z,-1.02
2023-11-30T23:58:42.132Z,-0.99
